Airfield :
LOGIN :

Register | Disclaimer

   EN    FR    IT 

 










Legend :    VFR   Marginal VFR   IFR   Intensive IFR   Very Intensive IFR
Visi :
Ceiling :
>= 8 km
>= 3000ft
5 to 8 km
1000 to 3000 ft
1500m to 5 km
500 to 1000 ft
800 to 1500m
200 to 500 ft
< 800m
< 200 ft
Symbols :   Thunderstorms  Fog  Heavy snow  Heavy precipitations  Wind > 20 kt
SIGMETs :     Misc.  Thunderstorms  Icing  Turbulence  Mountain Waves  Volcanic Ashes






- Airport Elevation : 24 ft
- IATA code : IBZ


LEIB - Ibiza

CURRENT METAR :
  • 220200Z AUTO 22011KT 9999 FEW011/// BKN013/// 15/13 Q1019

EXPIRED METARs :
  • 220130Z AUTO 22011KT 9999 FEW009/// SCT011/// BKN013/// 15/13 Q1019
  • 220100Z AUTO 22010KT 9999 FEW008/// SCT009/// BKN010/// 15/13 Q1020
  • 220030Z AUTO 21012KT 9999 FEW008/// SCT009/// BKN010/// 15/13 Q1020
  • 220000Z 22010KT 190V250 9999 SCT009 OVC012 15/13 Q1021 NOSIG
  • 212330Z 21009KT 9999 BKN009 OVC014 15/13 Q1021 NOSIG
  • 212300Z 21010KT 180V240 9999 BKN010 OVC014 15/13 Q1021 NOSIG
  • 212230Z 22011KT 9999 BKN011 OVC014 15/13 Q1022 NOSIG
  • 212200Z 21011KT 9999 BKN011 OVC014 15/13 Q1022 NOSIG
  • 212130Z 21010KT 9999 BKN011 OVC014 15/12 Q1023 NOSIG
  • 212100Z 20010KT 170V240 9999 BKN011 OVC014 15/12 Q1023 NOSIG

TAF TAF LEIB
Valid from the 21 at 21:00 until the 22 at 21:00 UTC


212000Z 2121/2221 23014KT 9999 SCT015 TX20/2212Z TN12/2206Z
TEMPO 2121/2207 BKN010
PROB40
TEMPO 2123/2207 4000 BR BKN004
TEMPO 2212/2221 24016G28KT



MET'MAP, your aeronautical weather chart ! - Copyright ORBIFLY December 2007 - Disclaimer

ORBIFLY MET'MAP TEAM :

Programming & Development : Alexandra Zaïnal
Original concept : Baudouin d'Aumeries
Technical & hardware support : Manuel Goepfert
Assistance : Marc-Olivier Méhu




SOURCES & CREDITS :

   NOAA